Time;durP1;ratioP1;P1;durP2;ratioP2;P2;SDS_P1;SDS_P2;PMS_P1;PMS_P2;Temp;Humidity;BMP_temperature;BMP_pressure;BME280_temperature;BME280_humidity;BME280_pressure;Samples;Min_cycle;Max_cycle;Signal;HPM_P1;HPM_P2
2021/03/14 00:00:19;;;;;;;1.98;0.60;;;;;;;3.30;100.00;94943.19;1027865;28;20015;-56
2021/03/14 00:00:50;;;;;;;1.67;0.57;;;;;;;3.30;100.00;94955.50;1027941;28;20007;-57
2021/03/14 00:01:21;;;;;;;3.13;0.52;;;;;;;3.30;100.00;94948.44;1020037;29;20043;-57
2021/03/14 00:01:51;;;;;;;5.10;0.65;;;;;;;3.29;100.00;94935.47;1028028;28;20121;-57
2021/03/14 00:02:22;;;;;;;1.88;0.47;;;;;;;3.28;100.00;94947.78;1015945;29;20016;-57
2021/03/14 00:02:52;;;;;;;2.20;0.88;;;;;;;3.19;100.00;94936.41;1024043;28;20022;-57
2021/03/14 00:03:27;;;;;;;1.38;0.40;;;;;;;3.20;100.00;94924.97;1027899;28;20014;-57
2021/03/14 00:03:58;;;;;;;3.92;0.80;;;;;;;3.29;100.00;94945.97;1027745;28;20073;-56
2021/03/14 00:04:28;;;;;;;2.58;0.57;;;;;;;3.29;100.00;94946.81;1027893;28;20015;-57
2021/03/14 00:04:59;;;;;;;2.88;0.40;;;;;;;3.31;100.00;94941.38;1028038;28;20015;-56
2021/03/14 00:05:30;;;;;;;1.42;0.50;;;;;;;3.30;100.00;94945.00;1032061;28;20030;-57
2021/03/14 00:06:02;;;;;;;3.13;0.80;;;;;;;3.30;100.00;94943.19;1019949;29;20094;-56
2021/03/14 00:06:32;;;;;;;2.35;0.50;;;;;;;3.30;100.00;94937.13;1019870;29;20055;-57
2021/03/14 00:07:05;;;;;;;2.22;0.50;;;;;;;3.30;100.00;94935.31;1031914;28;20018;-56
2021/03/14 00:07:35;;;;;;;2.67;0.50;;;;;;;3.30;100.00;94931.88;1027920;28;20022;-55
2021/03/14 00:08:07;;;;;;;3.17;0.70;;;;;;;3.31;100.00;94930.88;1019959;29;20389;-57
2021/03/14 00:08:38;;;;;;;3.00;0.45;;;;;;;3.30;100.00;94929.25;1031809;28;20010;-55
2021/03/14 00:09:08;;;;;;;2.90;0.60;;;;;;;3.25;100.00;94918.41;1031960;28;20045;-57
2021/03/14 00:09:39;;;;;;;1.45;0.68;;;;;;;3.30;100.00;94939.75;1027999;28;20013;-57
2021/03/14 00:10:11;;;;;;;2.83;0.80;;;;;;;3.30;100.00;94932.69;1027982;28;20047;-57
2021/03/14 00:10:43;;;;;;;1.90;0.50;;;;;;;3.29;100.00;94936.31;1023953;28;20020;-57
2021/03/14 00:11:14;;;;;;;2.10;0.68;;;;;;;3.30;100.00;94937.94;1031921;28;20026;-57
2021/03/14 00:11:44;;;;;;;2.53;0.63;;;;;;;3.31;100.00;94936.13;1031994;28;20030;-56
2021/03/14 00:12:15;;;;;;;2.47;0.55;;;;;;;3.28;100.00;94928.59;1015997;28;20020;-57
2021/03/14 00:12:45;;;;;;;2.35;0.73;;;;;;;3.32;100.00;94935.97;1023859;28;20026;-57
2021/03/14 00:13:18;;;;;;;1.60;0.50;;;;;;;3.32;100.00;94937.78;1023983;28;20042;-54
2021/03/14 00:13:49;;;;;;;5.30;0.80;;;;;;;3.31;100.00;94933.50;1023832;28;20055;-57
2021/03/14 00:14:19;;;;;;;1.52;0.55;;;;;;;3.30;100.00;94929.25;1032038;28;20496;-57
2021/03/14 00:14:50;;;;;;;0.70;0.40;;;;;;;3.30;100.00;94932.69;1027883;28;20381;-57
2021/03/14 00:15:22;;;;;;;0.98;0.50;;;;;;;3.30;100.00;94927.44;1023969;29;20071;-57
2021/03/14 00:15:52;;;;;;;2.30;0.60;;;;;;;3.30;100.00;94926.63;1027818;28;20066;-56
2021/03/14 00:16:23;;;;;;;2.63;0.60;;;;;;;3.28;100.00;94920.72;1016144;29;20539;-57
2021/03/14 00:16:54;;;;;;;1.83;0.60;;;;;;;3.32;100.00;94925.50;1023920;28;20079;-56
2021/03/14 00:17:24;;;;;;;3.03;0.70;;;;;;;3.31;100.00;94923.03;1027932;28;20492;-57
2021/03/14 00:17:55;;;;;;;3.55;0.65;;;;;;;3.30;100.00;94922.19;1023946;28;20026;-57
2021/03/14 00:18:29;;;;;;;1.75;0.55;;;;;;;3.31;100.00;94920.41;1031971;28;20022;-57
2021/03/14 00:18:59;;;;;;;1.63;0.50;;;;;;;3.31;100.00;94923.03;1027868;28;20026;-57
2021/03/14 00:19:30;;;;;;;1.52;0.57;;;;;;;3.32;100.00;94929.91;1027893;28;20018;-55
2021/03/14 00:20:03;;;;;;;2.47;0.50;;;;;;;3.32;100.00;94924.69;1035959;28;20121;-57
2021/03/14 00:20:33;;;;;;;2.13;1.00;;;;;;;3.31;100.00;94928.25;1032053;28;20502;-57
2021/03/14 00:21:05;;;;;;;3.05;0.75;;;;;;;3.32;100.00;94929.91;1031710;28;20022;-56
2021/03/14 00:21:35;;;;;;;2.00;0.70;;;;;;;3.32;100.00;94929.91;1027898;28;20029;-57
2021/03/14 00:22:06;;;;;;;2.47;0.68;;;;;;;3.31;100.00;94929.09;1024024;28;20077;-57
2021/03/14 00:22:37;;;;;;;3.40;0.68;;;;;;;3.32;100.00;94935.16;1027907;28;20511;-55
2021/03/14 00:23:07;;;;;;;2.33;0.75;;;;;;;3.31;100.00;94920.41;1027758;28;20038;-57
2021/03/14 00:23:38;;;;;;;1.98;0.70;;;;;;;3.34;100.00;94927.97;1031841;28;20041;-56
2021/03/14 00:24:09;;;;;;;2.88;0.90;;;;;;;3.33;100.00;94927.16;1035931;28;20392;-56
2021/03/14 00:24:40;;;;;;;2.15;0.60;;;;;;;3.34;100.00;94931.41;1031946;28;20453;-56
2021/03/14 00:25:11;;;;;;;1.33;0.50;;;;;;;3.36;100.00;94933.88;1031786;28;20014;-57
2021/03/14 00:25:42;;;;;;;2.40;0.65;;;;;;;3.36;100.00;94929.47;1023956;29;20023;-57
2021/03/14 00:26:13;;;;;;;4.15;1.08;;;;;;;3.35;100.00;94927.00;1031772;28;20026;-57
2021/03/14 00:26:44;;;;;;;2.95;0.70;;;;;;;3.38;100.00;94926.69;1035987;28;20084;-56
2021/03/14 00:27:14;;;;;;;3.25;0.52;;;;;;;3.35;100.00;94927.00;1027859;28;20504;-55
2021/03/14 00:27:45;;;;;;;3.58;0.70;;;;;;;3.37;100.00;94925.03;1027944;28;20464;-56
2021/03/14 00:28:18;;;;;;;1.83;0.73;;;;;;;3.36;100.00;94924.22;1019909;29;20442;-57
2021/03/14 00:28:49;;;;;;;2.58;0.73;;;;;;;3.36;100.00;94931.25;1023821;28;20032;-55
2021/03/14 00:29:19;;;;;;;1.80;0.90;;;;;;;3.31;100.00;94917.78;1027808;28;20029;-56
2021/03/14 00:29:50;;;;;;;2.72;0.70;;;;;;;3.37;100.00;94931.09;1027877;28;20027;-57
2021/03/14 00:30:21;;;;;;;2.53;0.50;;;;;;;3.37;100.00;94925.84;1031951;28;20024;-56
2021/03/14 00:30:52;;;;;;;2.15;0.50;;;;;;;3.38;100.00;94931.94;1024067;28;20075;-57
2021/03/14 00:31:23;;;;;;;1.77;0.70;;;;;;;3.38;100.00;94924.06;1027860;28;20397;-56
2021/03/14 00:32:01;;;;;;;1.50;0.75;;;;;;;3.40;100.00;94922.09;1031864;28;20057;-57
2021/03/14 00:32:33;;;;;;;2.88;0.70;;;;;;;3.39;100.00;94925.69;1027683;28;20030;-56
2021/03/14 00:33:04;;;;;;;1.20;0.32;;;;;;;3.39;100.00;94918.63;1031920;28;20065;-55
2021/03/14 00:33:35;;;;;;;3.20;0.73;;;;;;;3.40;100.00;94927.34;1027659;28;20492;-56
2021/03/14 00:34:06;;;;;;;2.85;0.70;;;;;;;3.38;100.00;94927.50;1023802;28;20030;-55
2021/03/14 00:34:37;;;;;;;2.15;0.70;;;;;;;3.42;100.00;94927.19;1031769;28;20137;-57
2021/03/14 00:35:10;;;;;;;0.85;0.40;;;;;;;3.43;100.00;94921.78;1023926;28;20024;-57
2021/03/14 00:35:41;;;;;;;1.58;0.50;;;;;;;3.43;100.00;94923.56;1027857;28;20030;-57
2021/03/14 00:36:12;;;;;;;2.95;0.70;;;;;;;3.44;100.00;94919.97;1035762;28;20116;-57
2021/03/14 00:36:43;;;;;;;4.28;0.80;;;;;;;3.43;100.00;94924.41;1027797;28;20034;-56
2021/03/14 00:37:14;;;;;;;4.82;0.80;;;;;;;3.43;100.00;94927.03;1031839;28;20488;-56
2021/03/14 00:37:45;;;;;;;3.08;0.70;;;;;;;3.42;100.00;94930.63;1031828;28;20022;-57
2021/03/14 00:38:16;;;;;;;1.42;0.63;;;;;;;3.41;100.00;94934.22;1027834;28;20121;-57
2021/03/14 00:38:46;;;;;;;1.10;0.50;;;;;;;3.43;100.00;94931.44;1023871;29;20050;-57
2021/03/14 00:39:17;;;;;;;1.20;0.50;;;;;;;3.43;100.00;94932.28;1027960;28;20041;-57
2021/03/14 00:39:47;;;;;;;1.70;0.52;;;;;;;3.43;100.00;94924.41;1031830;28;20026;-57
2021/03/14 00:40:20;;;;;;;1.58;0.63;;;;;;;3.44;100.00;94925.22;1031302;28;20030;-56
2021/03/14 00:40:50;;;;;;;3.20;0.80;;;;;;;3.43;100.00;94931.44;1031606;28;20025;-56
2021/03/14 00:41:21;;;;;;;4.88;0.65;;;;;;;3.41;100.00;94928.97;1027885;28;20026;-56
2021/03/14 00:41:52;;;;;;;2.83;0.90;;;;;;;3.40;100.00;94927.34;1027845;28;20026;-56
2021/03/14 00:42:22;;;;;;;2.33;0.80;;;;;;;3.40;100.00;94928.16;1031791;28;20543;-56
2021/03/14 00:42:54;;;;;;;1.13;0.50;;;;;;;3.40;100.00;94927.34;1031798;28;20503;-57
2021/03/14 00:43:25;;;;;;;2.65;0.50;;;;;;;3.40;100.00;94922.09;1023879;28;20027;-57
2021/03/14 00:43:56;;;;;;;2.63;0.60;;;;;;;3.42;100.00;94928.00;1027608;28;20018;-57
2021/03/14 00:44:26;;;;;;;2.83;0.55;;;;;;;3.40;100.00;94925.53;1019922;28;20042;-57
2021/03/14 00:44:57;;;;;;;2.88;0.70;;;;;;;3.37;100.00;94923.22;1027688;28;20022;-57
2021/03/14 00:45:30;;;;;;;2.10;0.82;;;;;;;3.36;100.00;94928.63;1027812;28;20019;-57
2021/03/14 00:46:01;;;;;;;1.30;0.95;;;;;;;3.34;100.00;94936.66;1019870;29;20095;-56
2021/03/14 00:46:31;;;;;;;1.63;0.52;;;;;;;3.33;100.00;94919.28;1031867;28;20317;-57
2021/03/14 00:47:03;;;;;;;2.92;0.73;;;;;;;3.33;100.00;94923.72;1023813;28;20602;-56
2021/03/14 00:47:34;;;;;;;3.95;0.95;;;;;;;3.31;100.00;94915.16;1023990;28;20606;-57
2021/03/14 00:48:06;;;;;;;3.22;0.55;;;;;;;3.29;100.00;94930.22;1031814;28;20019;-57
2021/03/14 00:48:37;;;;;;;5.20;0.93;;;;;;;3.29;100.00;94920.56;1029333;28;20055;-56
2021/03/14 00:49:07;;;;;;;1.65;0.55;;;;;;;3.27;100.00;94919.88;1027758;28;20153;-57
2021/03/14 00:49:38;;;;;;;2.47;0.65;;;;;;;3.26;100.00;94930.53;1035941;28;20068;-57
2021/03/14 00:50:10;;;;;;;2.33;0.50;;;;;;;3.25;100.00;94928.91;1035900;28;20092;-57
2021/03/14 00:50:41;;;;;;;4.93;0.70;;;;;;;3.24;100.00;94927.25;1027821;28;20501;-57
2021/03/14 00:51:12;;;;;;;2.97;0.80;;;;;;;3.24;100.00;94940.38;1031693;28;20014;-57
2021/03/14 00:51:43;;;;;;;2.40;0.85;;;;;;;3.20;100.00;94939.84;1027823;28;20023;-56
2021/03/14 00:52:13;;;;;;;1.55;0.40;;;;;;;3.18;100.00;94949.69;1027641;28;20489;-56
2021/03/14 00:52:44;;;;;;;2.38;0.60;;;;;;;3.16;100.00;94930.66;1027859;28;20045;-56
2021/03/14 00:53:14;;;;;;;2.70;0.60;;;;;;;3.05;100.00;94913.41;1031567;28;20502;-56
2021/03/14 00:53:45;;;;;;;1.35;0.40;;;;;;;3.10;100.00;94933.91;1027662;28;20039;-56
2021/03/14 00:54:16;;;;;;;3.95;0.75;;;;;;;3.04;100.00;94924.84;1035844;28;20010;-55
2021/03/14 00:54:46;;;;;;;1.70;0.55;;;;;;;3.10;100.00;94932.13;1019860;29;20019;-56
2021/03/14 00:55:17;;;;;;;2.47;0.70;;;;;;;2.88;100.00;94895.94;1023702;29;20102;-56
2021/03/14 00:55:49;;;;;;;1.23;0.50;;;;;;;3.10;100.00;94928.66;1027916;28;20019;-56
2021/03/14 00:56:19;;;;;;;3.75;1.02;;;;;;;3.07;100.00;94926.38;1032038;28;20090;-56
2021/03/14 00:56:50;;;;;;;2.25;0.68;;;;;;;3.09;100.00;94929.66;1027804;28;20019;-56
2021/03/14 00:57:21;;;;;;;4.15;0.60;;;;;;;3.07;100.00;94927.19;1031640;28;20021;-57
2021/03/14 00:57:51;;;;;;;3.22;0.70;;;;;;;3.07;100.00;94936.84;1023906;28;20050;-57
2021/03/14 00:58:22;;;;;;;1.60;0.52;;;;;;;3.07;100.00;94932.41;1027808;28;20106;-56
2021/03/14 00:58:52;;;;;;;2.47;0.52;;;;;;;3.03;100.00;94941.59;1019926;28;20028;-56
2021/03/14 00:59:23;;;;;;;2.13;0.50;;;;;;;3.01;100.00;94940.88;1035702;28;20142;-57
2021/03/14 00:59:54;;;;;;;2.45;0.93;;;;;;;3.01;100.00;94933.03;1031904;28;20022;-57
2021/03/14 01:00:24;;;;;;;3.95;0.70;;;;;;;2.98;100.00;94934.16;1031720;28;20090;-56
2021/03/14 01:00:55;;;;;;;1.77;0.60;;;;;;;2.97;100.00;94936.94;1027829;28;20207;-57
2021/03/14 01:01:26;;;;;;;3.85;0.50;;;;;;;2.95;100.00;94938.91;1031626;28;20178;-56
2021/03/14 01:01:57;;;;;;;2.05;0.70;;;;;;;2.94;100.00;94934.63;1027780;28;20023;-55
2021/03/14 01:02:27;;;;;;;1.50;0.57;;;;;;;2.91;100.00;94937.53;1027732;28;20030;-57
2021/03/14 01:02:58;;;;;;;1.75;0.73;;;;;;;2.92;100.00;94933.97;1027775;28;20117;-57
2021/03/14 01:03:29;;;;;;;0.63;0.47;;;;;;;2.92;100.00;94933.97;1035696;28;20025;-53
2021/03/14 01:04:00;;;;;;;2.70;0.70;;;;;;;2.92;100.00;94942.63;1027768;28;20469;-57
2021/03/14 01:04:31;;;;;;;1.42;0.50;;;;;;;2.93;100.00;94935.63;1027790;28;20485;-56
2021/03/14 01:05:02;;;;;;;1.02;0.40;;;;;;;2.90;100.00;94935.91;1031872;28;20108;-57
2021/03/14 01:05:33;;;;;;;1.40;0.40;;;;;;;2.90;100.00;94935.91;1027584;28;20025;-57
2021/03/14 01:06:04;;;;;;;4.60;0.65;;;;;;;2.88;100.00;94936.06;1031700;28;20380;-56
2021/03/14 01:06:35;;;;;;;4.20;0.73;;;;;;;2.86;100.00;94937.19;1031714;28;20117;-54
2021/03/14 01:07:05;;;;;;;2.88;0.50;;;;;;;2.85;100.00;94938.19;1031775;28;20050;-57
2021/03/14 01:07:36;;;;;;;1.27;0.50;;;;;;;2.85;100.00;94935.56;1031612;28;20022;-56
2021/03/14 01:08:07;;;;;;;3.15;0.50;;;;;;;2.82;100.00;94940.13;1035729;28;20053;-57
2021/03/14 01:08:38;;;;;;;1.35;0.40;;;;;;;2.81;100.00;94942.91;1031837;28;20036;-56
2021/03/14 01:09:08;;;;;;;1.50;0.55;;;;;;;2.79;100.00;94940.44;1031767;28;20101;-57
2021/03/14 01:09:39;;;;;;;2.95;0.40;;;;;;;2.78;100.00;94936.16;1031622;28;20023;-56
2021/03/14 01:10:10;;;;;;;3.30;0.60;;;;;;;2.80;100.00;94939.47;1023845;28;20031;-56
2021/03/14 01:10:41;;;;;;;2.05;0.60;;;;;;;2.78;100.00;94935.34;1035806;28;20401;-56
2021/03/14 01:11:12;;;;;;;2.58;0.43;;;;;;;2.77;100.00;94938.94;1023807;28;20015;-57
2021/03/14 01:11:43;;;;;;;1.58;0.50;;;;;;;2.76;100.00;94945.97;1035643;28;20021;-57
2021/03/14 01:12:14;;;;;;;1.35;0.50;;;;;;;2.75;100.00;94939.09;1023767;29;20054;-57
2021/03/14 01:12:45;;;;;;;4.72;0.90;;;;;;;2.74;100.00;94926.97;1027793;28;20516;-57
2021/03/14 01:13:16;;;;;;;1.88;0.52;;;;;;;2.77;100.00;94936.31;1023692;29;20025;-55
2021/03/14 01:13:47;;;;;;;3.53;1.08;;;;;;;2.75;100.00;94935.63;1023430;29;20026;-57
2021/03/14 01:14:17;;;;;;;3.03;0.52;;;;;;;2.74;100.00;94929.59;1027702;28;20114;-56
2021/03/14 01:14:48;;;;;;;1.50;0.40;;;;;;;2.68;100.00;94914.44;1027732;28;20026;-56
2021/03/14 01:15:19;;;;;;;2.67;0.57;;;;;;;2.74;100.00;94923.53;1027887;28;20058;-57
2021/03/14 01:15:50;;;;;;;0.80;0.30;;;;;;;2.71;100.00;94927.25;1019672;29;20043;-54
2021/03/14 01:16:21;;;;;;;2.53;0.93;;;;;;;2.72;100.00;94923.69;1023992;28;20382;-56
2021/03/14 01:16:51;;;;;;;1.98;0.60;;;;;;;2.73;100.00;94922.69;1031801;28;20027;-57
2021/03/14 01:17:22;;;;;;;2.05;0.47;;;;;;;2.70;100.00;94930.88;1015718;29;20020;-57
2021/03/14 01:17:53;;;;;;;1.17;0.40;;;;;;;2.72;100.00;94926.28;1031638;28;20026;-55
2021/03/14 01:18:24;;;;;;;1.50;0.40;;;;;;;2.71;100.00;94931.69;1023688;28;20033;-57
2021/03/14 01:18:54;;;;;;;1.27;0.40;;;;;;;2.69;100.00;94923.97;1031683;28;20022;-56
2021/03/14 01:19:25;;;;;;;3.10;0.52;;;;;;;2.70;100.00;94922.16;1027708;28;20026;-55
2021/03/14 01:19:56;;;;;;;0.20;0.20;;;;;;;2.67;100.00;94919.88;1019601;28;20027;-55
2021/03/14 01:20:26;;;;;;;1.63;0.50;;;;;;;2.67;100.00;94914.63;1031748;28;20029;-56
2021/03/14 01:20:57;;;;;;;1.40;0.60;;;;;;;2.68;100.00;94922.31;1019748;29;20027;-55
2021/03/14 01:21:28;;;;;;;1.48;0.30;;;;;;;2.66;100.00;94921.66;1023750;28;20094;-57
2021/03/14 01:21:58;;;;;;;0.57;0.40;;;;;;;2.67;100.00;94927.75;1027589;28;20396;-56
2021/03/14 01:22:29;;;;;;;1.08;0.40;;;;;;;2.64;100.00;94911.31;1027490;28;20029;-57
2021/03/14 01:23:00;;;;;;;1.63;0.50;;;;;;;2.64;100.00;94911.31;1023699;28;20497;-57
2021/03/14 01:23:30;;;;;;;1.45;0.30;;;;;;;2.63;100.00;94919.34;1027568;28;20046;-55
2021/03/14 01:24:01;;;;;;;2.95;0.52;;;;;;;2.61;100.00;94910.81;1023709;29;20606;-57
2021/03/14 01:24:32;;;;;;;2.28;0.47;;;;;;;2.59;100.00;94918.00;1019669;28;20016;-56
2021/03/14 01:25:04;;;;;;;1.63;0.55;;;;;;;2.60;100.00;94909.19;1027734;28;20021;-56
2021/03/14 01:25:35;;;;;;;0.80;0.38;;;;;;;2.62;100.00;94917.69;1031718;28;20602;-56
2021/03/14 01:26:07;;;;;;;1.80;0.40;;;;;;;2.58;100.00;94909.31;1019609;29;20059;-56
2021/03/14 01:26:37;;;;;;;2.25;0.50;;;;;;;2.58;100.00;94916.38;1031656;28;20458;-56
2021/03/14 01:27:08;;;;;;;1.40;0.40;;;;;;;2.59;100.00;94905.72;1023697;29;20118;-56
2021/03/14 01:27:40;;;;;;;0.80;0.40;;;;;;;2.58;100.00;94911.13;1031738;28;20018;-56
2021/03/14 01:28:11;;;;;;;2.30;0.40;;;;;;;2.59;100.00;94904.91;1027702;28;20404;-56
2021/03/14 01:28:42;;;;;;;0.65;0.30;;;;;;;2.58;100.00;94908.50;1023543;29;20106;-56
2021/03/14 01:29:12;;;;;;;1.40;0.30;;;;;;;2.56;100.00;94913.06;1027762;28;20473;-56
2021/03/14 01:29:43;;;;;;;0.50;0.30;;;;;;;2.54;100.00;94915.81;1035734;28;20186;-56
2021/03/14 01:30:17;;;;;;;2.10;0.40;;;;;;;2.51;100.00;94913.53;1031651;28;20050;-56
2021/03/14 01:30:48;;;;;;;1.27;0.30;;;;;;;2.49;100.00;94914.66;1027780;28;20461;-56
2021/03/14 01:31:18;;;;;;;0.80;0.47;;;;;;;2.49;100.00;94912.03;1019715;29;20027;-57
2021/03/14 01:31:49;;;;;;;0.35;0.20;;;;;;;2.51;100.00;94912.69;1027707;28;20031;-56
2021/03/14 01:32:20;;;;;;;0.63;0.30;;;;;;;2.50;100.00;94916.31;1019712;29;20115;-56
2021/03/14 01:32:50;;;;;;;0.95;0.50;;;;;;;2.42;100.00;94896.94;1027518;28;20022;-54
2021/03/14 01:33:22;;;;;;;0.45;0.10;;;;;;;2.50;100.00;94918.91;1031710;28;20158;-56
2021/03/14 01:33:52;;;;;;;0.77;0.30;;;;;;;2.52;100.00;94915.16;1027453;28;20492;-56
2021/03/14 01:34:23;;;;;;;0.50;0.22;;;;;;;2.55;100.00;94903.56;1027623;28;20014;-57
2021/03/14 01:34:54;;;;;;;1.10;0.15;;;;;;;2.52;100.00;94916.97;1027587;28;20130;-56
2021/03/14 01:35:25;;;;;;;2.58;0.40;;;;;;;2.51;100.00;94905.66;1035674;28;20080;-56
2021/03/14 01:35:55;;;;;;;0.65;0.20;;;;;;;2.50;100.00;94911.88;1023587;29;20023;-55
2021/03/14 01:36:26;;;;;;;0.93;0.35;;;;;;;2.51;100.00;94910.06;1031689;28;20027;-56
2021/03/14 01:36:57;;;;;;;0.68;0.30;;;;;;;2.51;100.00;94916.16;1031682;28;20022;-56
2021/03/14 01:37:28;;;;;;;1.90;0.38;;;;;;;2.50;100.00;94903.19;1019629;29;20389;-57
2021/03/14 01:37:59;;;;;;;0.77;0.20;;;;;;;2.50;100.00;94911.06;1031684;28;20081;-56
2021/03/14 01:38:30;;;;;;;2.55;0.40;;;;;;;2.47;100.00;94906.94;1019717;28;20019;-56
2021/03/14 01:39:01;;;;;;;0.55;0.30;;;;;;;2.50;100.00;94911.06;1027544;28;20023;-56
2021/03/14 01:39:32;;;;;;;1.05;0.28;;;;;;;2.51;100.00;94910.06;1027717;28;20023;-55
2021/03/14 01:40:03;;;;;;;1.95;0.45;;;;;;;2.50;100.00;94903.19;1023659;29;20098;-56
2021/03/14 01:40:34;;;;;;;0.60;0.40;;;;;;;2.49;100.00;94902.38;1027691;28;20382;-56
2021/03/14 01:41:05;;;;;;;0.55;0.40;;;;;;;2.51;100.00;94904.81;1015641;29;20056;-56
2021/03/14 01:41:40;;;;;;;0.93;0.40;;;;;;;2.48;100.00;94903.34;1023761;28;20482;-56
2021/03/14 01:42:11;;;;;;;0.93;0.32;;;;;;;2.50;100.00;94901.41;1027609;28;20019;-56
2021/03/14 01:42:42;;;;;;;0.68;0.50;;;;;;;2.49;100.00;94904.16;1023568;29;20574;-56
2021/03/14 01:43:13;;;;;;;1.10;0.35;;;;;;;2.46;100.00;94915.78;1031503;28;20022;-56
2021/03/14 01:43:44;;;;;;;0.47;0.20;;;;;;;2.44;100.00;94905.44;1015566;29;20028;-56
2021/03/14 01:44:15;;;;;;;0.80;0.30;;;;;;;2.46;100.00;94915.78;1023643;28;20043;-57
2021/03/14 01:44:47;;;;;;;1.38;0.40;;;;;;;2.47;100.00;94903.50;1027538;28;20030;-56
2021/03/14 01:45:19;;;;;;;1.40;0.38;;;;;;;2.47;100.00;94898.25;1023589;28;20533;-57
2021/03/14 01:45:50;;;;;;;0.90;0.40;;;;;;;2.47;100.00;94912.16;1027617;28;20011;-57
2021/03/14 01:46:22;;;;;;;1.38;0.40;;;;;;;2.39;100.00;94899.84;1023649;28;20520;-55
2021/03/14 01:46:53;;;;;;;1.02;0.30;;;;;;;2.47;100.00;94908.75;1027578;28;20098;-56
2021/03/14 01:47:38;;;;;;;1.40;0.32;;;;;;;2.45;100.00;94911.50;1031536;28;20007;-56
2021/03/14 01:48:09;;;;;;;0.65;0.20;;;;;;;2.45;100.00;94908.88;1027556;28;20015;-56
2021/03/14 01:48:40;;;;;;;0.75;0.40;;;;;;;2.45;100.00;94903.66;1031622;28;20011;-57
2021/03/14 01:49:10;;;;;;;0.50;0.20;;;;;;;2.45;100.00;94907.06;1027561;28;20027;-56
2021/03/14 01:49:41;;;;;;;0.82;0.22;;;;;;;2.45;100.00;94907.06;1019876;29;20144;-56
2021/03/14 01:50:14;;;;;;;1.77;0.55;;;;;;;2.48;100.00;94910.41;1023706;28;20026;-56
2021/03/14 01:50:44;;;;;;;0.20;0.20;;;;;;;2.47;100.00;94909.56;1031679;28;20015;-56
2021/03/14 01:51:15;;;;;;;0.75;0.20;;;;;;;2.47;100.00;94916.59;1023501;28;20019;-56
2021/03/14 01:51:46;;;;;;;4.18;0.30;;;;;;;2.47;100.00;94914.78;1031543;28;20033;-57
2021/03/14 01:52:16;;;;;;;0.63;0.30;;;;;;;2.47;100.00;94924.47;1023632;28;20015;-54
2021/03/14 01:52:47;;;;;;;3.20;0.30;;;;;;;2.45;100.00;94914.94;1027652;28;20026;-56
2021/03/14 01:53:19;;;;;;;0.68;0.20;;;;;;;2.45;100.00;94914.13;1027456;28;20007;-56
2021/03/14 01:53:49;;;;;;;1.13;0.20;;;;;;;2.45;100.00;94914.13;1028378;28;20055;-56
2021/03/14 01:54:20;;;;;;;0.25;0.20;;;;;;;2.44;100.00;94920.34;1022388;28;20016;-54
2021/03/14 01:54:51;;;;;;;1.83;0.30;;;;;;;2.45;100.00;94928.03;1030458;28;20015;-56
2021/03/14 01:55:22;;;;;;;1.20;0.73;;;;;;;2.44;100.00;94917.75;1030247;28;20013;-54
2021/03/14 01:55:53;;;;;;;2.15;0.40;;;;;;;2.44;100.00;94920.34;1034184;28;20114;-57
2021/03/14 01:56:24;;;;;;;0.50;0.28;;;;;;;2.43;100.00;94913.47;1030128;28;20054;-56
2021/03/14 01:56:55;;;;;;;0.57;0.30;;;;;;;2.42;100.00;94923.13;1022966;29;20043;-56
2021/03/14 01:57:26;;;;;;;0.47;0.20;;;;;;;2.43;100.00;94921.31;1034425;28;20014;-54
2021/03/14 01:57:57;;;;;;;0.32;0.20;;;;;;;2.44;100.00;94925.59;1030793;28;20076;-56
2021/03/14 01:58:28;;;;;;;0.93;0.40;;;;;;;2.41;100.00;94921.47;1026746;28;20046;-55
2021/03/14 01:58:59;;;;;;;1.02;0.35;;;;;;;2.42;100.00;94911.81;1034486;28;20033;-56
2021/03/14 01:59:30;;;;;;;0.95;0.40;;;;;;;2.42;100.00;94906.56;1030469;28;20023;-55
2021/03/14 02:00:01;;;;;;;1.13;0.30;;;;;;;2.40;100.00;94916.38;1019753;29;20144;-56
2021/03/14 02:00:31;;;;;;;1.17;0.30;;;;;;;2.41;100.00;94911.00;1023632;28;20042;-56
2021/03/14 02:01:02;;;;;;;0.35;0.20;;;;;;;2.41;100.00;94918.84;1027671;28;20130;-56
2021/03/14 02:01:33;;;;;;;0.65;0.20;;;;;;;2.40;100.00;94917.22;1015734;29;20020;-56
2021/03/14 02:02:04;;;;;;;0.57;0.25;;;;;;;2.41;100.00;94915.41;1023647;28;20029;-54
2021/03/14 02:02:35;;;;;;;1.15;0.20;;;;;;;2.42;100.00;94917.03;1027541;28;20015;-56
2021/03/14 02:03:06;;;;;;;0.65;0.20;;;;;;;2.42;100.00;94925.75;1023810;28;20597;-55
2021/03/14 02:03:36;;;;;;;1.65;0.20;;;;;;;2.34;100.00;94909.94;1031439;28;20022;-53
2021/03/14 02:04:07;;;;;;;0.85;0.30;;;;;;;2.42;100.00;94917.88;1027551;28;20018;-56
2021/03/14 02:04:38;;;;;;;0.65;0.30;;;;;;;2.43;100.00;94935.22;1027577;28;20019;-55
2021/03/14 02:05:10;;;;;;;4.15;0.30;;;;;;;2.42;100.00;94925.75;1019723;28;20047;-56
2021/03/14 02:05:41;;;;;;;0.63;0.15;;;;;;;2.41;100.00;94926.72;1023547;28;20019;-56
2021/03/14 02:06:12;;;;;;;1.08;0.20;;;;;;;2.42;100.00;94920.50;1023526;29;20027;-55
2021/03/14 02:06:42;;;;;;;0.25;0.10;;;;;;;2.43;100.00;94922.13;1039638;28;20030;-56
2021/03/14 02:07:14;;;;;;;1.13;0.40;;;;;;;2.41;100.00;94921.47;1035701;28;20025;-56
2021/03/14 02:07:46;;;;;;;0.90;0.30;;;;;;;2.41;100.00;94916.22;1023542;29;20163;-56
2021/03/14 02:08:17;;;;;;;2.65;0.32;;;;;;;2.39;100.00;94918.19;1019608;29;20402;-57
2021/03/14 02:08:48;;;;;;;0.47;0.20;;;;;;;2.43;100.00;94919.50;1023617;28;20019;-56
2021/03/14 02:09:19;;;;;;;0.77;0.17;;;;;;;2.44;100.00;94926.41;1027664;28;20030;-55
2021/03/14 02:09:49;;;;;;;0.98;0.20;;;;;;;2.44;100.00;94921.16;1023639;29;20055;-56
2021/03/14 02:10:23;;;;;;;0.52;0.20;;;;;;;2.44;100.00;94922.97;1023603;29;20106;-55
2021/03/14 02:10:54;;;;;;;1.23;0.20;;;;;;;2.43;100.00;94924.75;1031579;28;20117;-55
2021/03/14 02:11:25;;;;;;;5.05;0.60;;;;;;;2.43;100.00;94911.66;1027629;28;20035;-56
2021/03/14 02:11:57;;;;;;;1.30;0.30;;;;;;;2.44;100.00;94915.13;1031522;28;20039;-55
2021/03/14 02:12:28;;;;;;;1.63;0.30;;;;;;;2.46;100.00;94921.03;1031413;28;20558;-56
2021/03/14 02:13:11;;;;;;;0.13;0.10;;;;;;;2.47;100.00;94908.75;1023641;28;20543;-56
2021/03/14 02:13:44;;;;;;;0.57;0.20;;;;;;;2.47;100.00;94913.97;1027422;28;20118;-55
2021/03/14 02:14:15;;;;;;;0.68;0.25;;;;;;;2.45;100.00;94914.13;1031489;28;20119;-57
2021/03/14 02:14:46;;;;;;;1.48;0.43;;;;;;;2.45;100.00;94916.75;1031562;28;20161;-54
2021/03/14 02:15:17;;;;;;;0.40;0.20;;;;;;;2.45;100.00;94914.13;1035664;28;20454;-56
2021/03/14 02:15:54;;;;;;;1.65;0.45;;;;;;;2.45;100.00;94917.56;1027541;28;20025;-55
2021/03/14 02:16:28;;;;;;;0.52;0.30;;;;;;;2.47;100.00;94916.59;1027521;28;20023;-56
2021/03/14 02:16:59;;;;;;;0.75;0.30;;;;;;;2.44;100.00;94915.13;1023610;28;20569;-56
2021/03/14 02:17:31;;;;;;;0.93;0.30;;;;;;;2.45;100.00;94912.31;1031576;28;20062;-56
2021/03/14 02:18:02;;;;;;;1.80;0.60;;;;;;;2.40;100.00;94913.75;1027561;28;20413;-53
2021/03/14 02:18:33;;;;;;;1.02;0.30;;;;;;;2.47;100.00;94921.84;1035510;28;20458;-56
2021/03/14 02:19:05;;;;;;;1.08;0.30;;;;;;;2.47;100.00;94927.91;1027497;28;20172;-55
2021/03/14 02:19:38;;;;;;;1.52;0.28;;;;;;;2.47;100.00;94921.84;1027532;28;20085;-56
2021/03/14 02:20:12;;;;;;;0.40;0.20;;;;;;;2.47;100.00;94919.22;1019595;29;20046;-56
2021/03/14 02:20:43;;;;;;;0.45;0.20;;;;;;;2.44;100.00;94923.78;1023429;28;20031;-56
2021/03/14 02:21:14;;;;;;;0.70;0.20;;;;;;;2.48;100.00;94924.31;1015703;29;20035;-56
2021/03/14 02:21:45;;;;;;;1.65;0.20;;;;;;;2.47;100.00;94919.22;1023689;28;20022;-56
2021/03/14 02:22:16;;;;;;;0.63;0.30;;;;;;;2.48;100.00;94915.63;1027590;28;20034;-56
2021/03/14 02:22:48;;;;;;;1.17;0.30;;;;;;;2.48;100.00;94923.50;1027448;28;20033;-57
2021/03/14 02:23:38;;;;;;;1.38;0.65;;;;;;;2.47;100.00;94921.84;1023539;28;20075;-56
2021/03/14 02:24:14;;;;;;;0.80;0.30;;;;;;;2.45;100.00;94917.56;1027515;28;20049;-56
2021/03/14 02:24:46;;;;;;;0.70;0.35;;;;;;;2.48;100.00;94920.88;1023499;29;20106;-56
2021/03/14 02:25:22;;;;;;;0.93;0.30;;;;;;;2.49;100.00;94922.50;1015737;29;20036;-55
2021/03/14 02:25:58;;;;;;;0.30;0.20;;;;;;;2.48;100.00;94916.44;1023594;28;20023;-56
2021/03/14 02:26:47;;;;;;;0.22;0.20;;;;;;;2.47;100.00;94920.03;1027636;28;20038;-55
2021/03/14 02:27:18;;;;;;;1.45;0.30;;;;;;;2.45;100.00;94925.41;1019673;29;20039;-56
2021/03/14 02:27:49;;;;;;;1.00;0.30;;;;;;;2.49;100.00;94923.34;1031564;28;20631;-56